Time;durP1;ratioP1;P1;durP2;ratioP2;P2;SDS_P1;SDS_P2;PMS_P1;PMS_P2;Temp;Humidity;BMP_temperature;BMP_pressure;BME280_temperature;BME280_humidity;BME280_pressure;Samples;Min_cycle;Max_cycle;Signal;HPM_P1;HPM_P2
2023/05/13 00:00:58;;;;;;;8.7;4.7;;;;;;;9;68.2;99080;;;;
2023/05/13 00:11:58;;;;;;;7.4;4.3;;;;;;;8.7;69.5;99080;;;;
2023/05/13 00:22:58;;;;;;;7.4;4.3;;;;;;;8.5;71.5;99090;;;;
2023/05/13 00:32:58;;;;;;;7.4;4.3;;;;;;;8.4;71;99090;;;;
2023/05/13 00:43:58;;;;;;;7.9;4;;;;;;;8.3;73;99100;;;;
2023/05/13 00:53:58;;;;;;;7.9;4;;;;;;;8.3;73.2;99100;;;;
2023/05/13 01:04:58;;;;;;;11.9;4.6;;;;;;;8.3;74.3;99110;;;;
2023/05/13 01:15:58;;;;;;;9.4;5.2;;;;;;;8.3;75.1;99120;;;;
2023/05/13 01:25:58;;;;;;;9.4;5.2;;;;;;;8.3;74.4;99120;;;;
2023/05/13 01:35:58;;;;;;;9.8;4;;;;;;;8.3;74.5;99130;;;;
2023/05/13 01:46:58;;;;;;;9.8;4;;;;;;;8.3;74.3;99130;;;;
2023/05/13 01:57:58;;;;;;;9.8;4;;;;;;;8.2;73.8;99140;;;;
2023/05/13 02:07:58;;;;;;;11;5.5;;;;;;;8.1;74.4;99130;;;;
2023/05/13 02:17:58;;;;;;;11;5.5;;;;;;;7.9;74.4;99140;;;;
2023/05/13 02:28:58;;;;;;;11;5.5;;;;;;;7.7;75.3;99140;;;;
2023/05/13 02:39:58;;;;;;;10;6;;;;;;;7.4;75.1;99150;;;;
2023/05/13 02:49:58;;;;;;;10;6;;;;;;;7.2;77;99150;;;;
2023/05/13 02:59:58;;;;;;;10;6;;;;;;;7.1;77.5;99160;;;;
2023/05/13 03:10:58;;;;;;;10.3;4.7;;;;;;;7.2;77.9;99160;;;;
2023/05/13 03:21:58;;;;;;;;;;;;;;;7.5;78.6;99170;;;;
2023/05/13 03:32:58;;;;;;;7.4;4.8;;;;;;;7.8;79.5;99170;;;;
2023/05/13 03:43:58;;;;;;;7.4;4.8;;;;;;;8.2;78.9;99180;;;;
2023/05/13 03:53:58;;;;;;;10.4;6.2;;;;;;;8.5;77.4;99190;;;;
2023/05/13 04:04:58;;;;;;;10.4;6.2;;;;;;;8.8;76.8;99200;;;;
2023/05/13 04:15:58;;;;;;;10.4;6.2;;;;;;;9.3;76.1;99190;;;;
2023/05/13 04:25:58;;;;;;;10;6.1;;;;;;;9.8;74.7;99200;;;;
2023/05/13 04:35:58;;;;;;;10;6.1;;;;;;;10.2;73.9;99220;;;;
2023/05/13 04:45:58;;;;;;;10;6.1;;;;;;;10.6;73.7;99220;;;;
2023/05/13 04:55:59;;;;;;;12.1;6.6;;;;;;;10.9;72.7;99220;;;;
2023/05/13 05:06:58;;;;;;;12.1;6.6;;;;;;;11.3;72.3;99230;;;;
2023/05/13 05:17:58;;;;;;;12.1;6.6;;;;;;;11.6;70.9;99230;;;;
2023/05/13 05:28:58;;;;;;;9.9;5.8;;;;;;;11.8;70.1;99240;;;;
2023/05/13 05:38:58;;;;;;;9.9;5.8;;;;;;;11.9;69.5;99240;;;;
2023/05/13 05:48:58;;;;;;;9.9;5.8;;;;;;;12.2;68.5;99240;;;;
2023/05/13 05:58:58;;;;;;;9.2;5.6;;;;;;;12.6;68.3;99240;;;;
2023/05/13 06:09:58;;;;;;;9.2;5.6;;;;;;;13.1;66.4;99250;;;;
2023/05/13 06:19:58;;;;;;;9.2;5.6;;;;;;;13.7;63;99250;;;;
2023/05/13 06:29:58;;;;;;;8;5;;;;;;;14;61.5;99250;;;;
2023/05/13 06:39:58;;;;;;;8;5;;;;;;;14.5;60.2;99240;;;;
2023/05/13 06:50:58;;;;;;;8;5;;;;;;;14.6;59.2;99240;;;;
2023/05/13 07:00:58;;;;;;;11;4;;;;;;;15.3;59;99250;;;;
2023/05/13 07:11:58;;;;;;;11;4;;;;;;;15.5;58;99250;;;;
2023/05/13 07:22:58;;;;;;;11;4;;;;;;;15.8;56.5;99240;;;;
2023/05/13 07:33:58;;;;;;;8.3;4.1;;;;;;;16;56.7;99240;;;;
2023/05/13 07:43:58;;;;;;;8.3;4.1;;;;;;;16.3;54.1;99240;;;;
2023/05/13 07:54:58;;;;;;;6.5;2.9;;;;;;;16.4;50.9;99240;;;;
2023/05/13 08:05:58;;;;;;;6.5;2.9;;;;;;;16.2;53;99240;;;;
2023/05/13 08:15:58;;;;;;;6.5;2.9;;;;;;;16.2;54.1;99240;;;;
2023/05/13 08:26:58;;;;;;;13.3;5.4;;;;;;;16.8;52.4;99240;;;;
2023/05/13 08:36:58;;;;;;;13.3;5.4;;;;;;;17.5;52.8;99240;;;;
2023/05/13 08:47:58;;;;;;;13.3;5.4;;;;;;;17.8;51.6;99230;;;;
2023/05/13 08:57:58;;;;;;;6.4;3.1;;;;;;;17.4;51.2;99230;;;;
2023/05/13 09:08:58;;;;;;;6.4;3.1;;;;;;;17.3;48.3;99220;;;;
2023/05/13 09:18:58;;;;;;;6.4;3.1;;;;;;;17.1;50.1;99220;;;;
2023/05/13 09:28:58;;;;;;;6.2;3.2;;;;;;;17.4;49.1;99210;;;;
2023/05/13 09:39:58;;;;;;;6.2;3.2;;;;;;;17.9;49.3;99210;;;;
2023/05/13 09:49:58;;;;;;;6.2;3.2;;;;;;;17.8;48.7;99210;;;;
2023/05/13 09:59:58;;;;;;;6.5;3.3;;;;;;;17.9;47.3;99210;;;;
2023/05/13 10:09:58;;;;;;;6.5;3.3;;;;;;;18;45.1;99210;;;;
2023/05/13 10:19:58;;;;;;;6.5;3.3;;;;;;;18.1;44.9;99220;;;;
2023/05/13 10:29:58;;;;;;;6.3;2.6;;;;;;;18.1;44.8;99220;;;;
2023/05/13 10:40:58;;;;;;;6.3;2.6;;;;;;;18.6;45.9;99200;;;;
2023/05/13 10:50:58;;;;;;;6.3;2.6;;;;;;;19;44.3;99210;;;;
2023/05/13 11:01:58;;;;;;;5.2;2.8;;;;;;;19.2;44.8;99210;;;;
2023/05/13 11:12:58;;;;;;;5.2;2.8;;;;;;;19.5;44.3;99200;;;;
2023/05/13 11:22:58;;;;;;;5.2;2.8;;;;;;;19.4;43.5;99190;;;;
2023/05/13 11:33:58;;;;;;;7.3;3.1;;;;;;;19.2;43.1;99190;;;;
2023/05/13 11:43:58;;;;;;;7.3;3.1;;;;;;;19.6;43.2;99190;;;;
2023/05/13 11:53:58;;;;;;;7.5;3.1;;;;;;;19.8;43.5;99200;;;;
2023/05/13 12:04:58;;;;;;;7.5;3.1;;;;;;;19.3;44.8;99190;;;;
2023/05/13 12:14:59;;;;;;;7.5;3.1;;;;;;;19.2;43.7;99190;;;;
2023/05/13 12:25:58;;;;;;;6.5;2.7;;;;;;;19;44.1;99180;;;;
2023/05/13 12:36:59;;;;;;;6.5;2.7;;;;;;;19.6;43.4;99190;;;;
2023/05/13 12:47:58;;;;;;;6.5;2.7;;;;;;;18.9;44.7;99180;;;;
2023/05/13 12:58:58;;;;;;;5.8;2.7;;;;;;;18.5;44.8;99190;;;;
2023/05/13 13:08:58;;;;;;;5.8;2.7;;;;;;;19;45.2;99180;;;;
2023/05/13 13:18:59;;;;;;;5.8;2.7;;;;;;;18.9;45.2;99180;;;;
2023/05/13 13:29:58;;;;;;;4.6;2.5;;;;;;;18.5;44.9;99180;;;;
2023/05/13 13:40:58;;;;;;;4.6;2.5;;;;;;;18.1;45.6;99180;;;;
2023/05/13 13:50:58;;;;;;;4.6;2.5;;;;;;;17.9;47;99190;;;;
2023/05/13 14:00:58;;;;;;;5.1;2.6;;;;;;;18.2;47.1;99190;;;;
2023/05/13 14:10:58;;;;;;;5.1;2.6;;;;;;;18;46.2;99200;;;;
2023/05/13 14:20:58;;;;;;;5.1;2.6;;;;;;;17.7;46.6;99200;;;;
2023/05/13 14:32:00;;;;;;;5.8;2.3;;;;;;;17.7;47.5;99210;;;;
2023/05/13 14:41:58;;;;;;;5.8;2.3;;;;;;;17.7;48;99210;;;;
2023/05/13 14:51:58;;;;;;;5.8;2.3;;;;;;;17.6;48.9;99220;;;;
2023/05/13 15:02:58;;;;;;;8.9;3.8;;;;;;;17.2;48.6;99210;;;;
2023/05/13 15:12:58;;;;;;;8.9;3.8;;;;;;;17;50;99210;;;;
2023/05/13 15:22:58;;;;;;;8.9;3.8;;;;;;;17.3;49.6;99210;;;;
2023/05/13 15:33:58;;;;;;;6.5;3.1;;;;;;;17;49.7;99200;;;;
2023/05/13 15:43:58;;;;;;;6.5;3.1;;;;;;;17;50.8;99200;;;;
2023/05/13 15:54:58;;;;;;;6.1;3.5;;;;;;;22.1;40.9;99200;;;;
2023/05/13 16:05:58;;;;;;;6.1;3.5;;;;;;;23.2;37.6;99180;;;;
2023/05/13 16:16:58;;;;;;;6.1;3.5;;;;;;;20.5;41.7;99180;;;;
2023/05/13 16:26:58;;;;;;;5.3;2.8;;;;;;;19.6;42.2;99180;;;;
2023/05/13 16:37:58;;;;;;;5.3;2.8;;;;;;;19.4;42.2;99180;;;;
2023/05/13 16:48:58;;;;;;;5.3;2.8;;;;;;;19.4;41.6;99180;;;;
2023/05/13 16:59:58;;;;;;;6.4;2.7;;;;;;;18.7;43.7;99170;;;;
2023/05/13 17:09:58;;;;;;;6.4;2.7;;;;;;;19.4;41.7;99160;;;;
2023/05/13 17:19:58;;;;;;;6.4;2.7;;;;;;;17.9;44.9;99160;;;;
2023/05/13 17:29:58;;;;;;;5.1;2.9;;;;;;;17;47;99160;;;;
2023/05/13 17:40:58;;;;;;;5.1;2.9;;;;;;;16.2;48.8;99160;;;;
2023/05/13 17:50:59;;;;;;;5.1;2.9;;;;;;;15.5;50.8;99160;;;;
2023/05/13 18:01:58;;;;;;;5.8;2.8;;;;;;;15;51.8;99180;;;;
2023/05/13 18:11:58;;;;;;;5.8;2.8;;;;;;;14.5;52.9;99180;;;;
2023/05/13 18:21:58;;;;;;;5.8;2.8;;;;;;;13.9;54.1;99180;;;;
2023/05/13 18:32:59;;;;;;;8.5;5.2;;;;;;;13.1;55.7;99190;;;;
2023/05/13 18:42:58;;;;;;;8.5;5.2;;;;;;;12.6;59.1;99200;;;;
2023/05/13 18:52:59;;;;;;;8.5;5.2;;;;;;;12.1;60.9;99210;;;;
2023/05/13 19:03:58;;;;;;;11.3;6.7;;;;;;;11.7;61.3;99220;;;;
2023/05/13 19:14:59;;;;;;;11.3;6.7;;;;;;;11.3;63.9;99230;;;;
2023/05/13 19:24:59;;;;;;;25.7;12.3;;;;;;;11;64.2;99230;;;;
2023/05/13 19:35:58;;;;;;;25.7;12.3;;;;;;;10.7;65.1;99230;;;;
2023/05/13 19:46:59;;;;;;;25.7;12.3;;;;;;;10.5;66;99240;;;;
2023/05/13 19:57:58;;;;;;;13.8;7.4;;;;;;;10.4;67.4;99240;;;;
2023/05/13 20:19:46;;;;;;;13.8;7.4;;;;;;;10.1;69.2;99220;;;;
2023/05/13 20:29:46;;;;;;;12;6.2;;;;;;;10.1;70.7;99220;;;;
2023/05/13 21:04:53;;;;;;;12.5;5.9;;;;;;;9.9;71.1;99200;;;;
2023/05/13 21:14:52;;;;;;;12.5;5.9;;;;;;;9.9;71;99190;;;;
2023/05/13 21:25:52;;;;;;;10.7;5.8;;;;;;;9.7;71.4;99190;;;;
2023/05/13 21:35:52;;;;;;;10.7;5.8;;;;;;;9.6;71.8;99190;;;;
2023/05/13 21:46:52;;;;;;;10.7;5.8;;;;;;;9.4;72;99200;;;;
2023/05/13 21:57:52;;;;;;;9.8;5.5;;;;;;;9.3;72.7;99200;;;;
2023/05/13 22:07:52;;;;;;;16.9;8.6;;;;;;;9.2;72.9;99200;;;;
2023/05/13 22:17:52;;;;;;;16.9;8.6;;;;;;;9.1;73;99200;;;;
2023/05/13 22:27:53;;;;;;;16.9;8.6;;;;;;;9;73;99200;;;;
2023/05/13 22:38:52;;;;;;;12;6.7;;;;;;;8.8;72.9;99190;;;;
2023/05/13 22:48:52;;;;;;;12;6.7;;;;;;;8.5;73.5;99190;;;;
2023/05/13 22:58:52;;;;;;;12;6.7;;;;;;;8.2;75.4;99190;;;;
2023/05/13 23:08:52;;;;;;;13.8;8.3;;;;;;;8;75.2;99190;;;;
2023/05/13 23:18:52;;;;;;;13.8;8.3;;;;;;;7.8;76.2;99180;;;;
2023/05/13 23:28:52;;;;;;;13.8;8.3;;;;;;;7.6;77.7;99170;;;;
2023/05/13 23:39:52;;;;;;;12.9;7.3;;;;;;;7.4;78.1;99170;;;;
2023/05/13 23:49:52;;;;;;;12.9;7.3;;;;;;;7.3;78.6;99160;;;;
